Data for 11/28/2010

Time Sea-Level Adjusted Pressure Absolute Pressure Temperature Relative Humidity Dew Point   
(mb) (inHg) (mb) (inHg) (C) (F) (%) (C) (F)
00:05 1003 29.62 833 24.6 -2.1 28.3 89 -3.6 25.5
00:10 1003 29.62 832 24.57 -2 28.3 89 -3.6 25.6
00:15 1003 29.62 832 24.57 -2.1 28.2 89 -3.7 25.3
00:20 1003 29.62 832 24.57 -2.1 28.2 89 -3.8 25.2
00:25 1003 29.62 832 24.57 -2.2 28 88 -3.9 24.9
00:30 1003 29.62 833 24.6 -2.6 27.4 87 -4.4 24.1
00:35 1003 29.62 833 24.6 -3 26.7 88 -4.6 23.7
00:40 1003 29.62 833 24.6 -3.3 26 90 -4.8 23.4
00:45 1003 29.62 833 24.6 -3.5 25.7 89 -5 23
00:50 1003 29.62 832 24.57 -3.6 25.6 91 -4.9 23.2
00:55 1003 29.62 832 24.57 -3.6 25.6 91 -4.9 23.2
01:00 1003 29.62 832 24.57 -3.6 25.5 91 -4.9 23.2
01:05 1003 29.62 832 24.57 -3.6 25.5 91 -4.8 23.3
01:10 1003 29.62 832 24.57 -3.6 25.5 90 -5 23
01:15 1003 29.62 832 24.57 -3.8 25.2 90 -5.2 22.6
01:20 1003 29.62 832 24.57 -3.8 25.2 92 -4.8 23.3
01:25 1003 29.62 832 24.57 -3.7 25.3 93 -4.7 23.5
01:30 1003 29.62 832 24.57 -3.8 25.2 94 -4.6 23.8
01:35 1003 29.62 832 24.57 -3.7 25.4 95 -4.4 24.1
01:40 1003 29.62 832 24.57 -3.7 25.3 95 -4.4 24
01:45 1003 29.62 832 24.57 -3.8 25.1 96 -4.4 24.1
01:50 1003 29.62 832 24.57 -3.8 25.2 96 -4.3 24.3
01:55 1003 29.62 832 24.57 -3.7 25.3 96 -4.2 24.4
02:00 1003 29.62 832 24.57 -3.8 25.2 97 -4.2 24.4
02:05 1003 29.62 832 24.57 -3.9 25 97 -4.3 24.2
02:10 1003 29.62 832 24.57 -4.1 24.7 97 -4.5 23.8
02:15 1003 29.62 832 24.57 -4.4 24.1 96 -4.9 23.2
02:20 1003 29.62 832 24.57 -4.7 23.5 97 -5.1 22.7
02:25 1003 29.62 832 24.57 -5.1 22.8 96 -5.6 22
02:30 1003 29.62 832 24.57 -5.3 22.5 97 -5.6 21.8
02:35 1003 29.62 832 24.57 -5.1 22.8 97 -5.5 22.2
02:40 1003 29.62 832 24.57 -4.9 23.1 98 -5.2 22.6
02:45 1003 29.62 832 24.57 -4.7 23.5 98 -5 22.9
02:50 1003 29.62 832 24.57 -5 23 97 -5.4 22.3
02:55 1003 29.62 832 24.57 -5.1 22.8 97 -5.5 22.1
03:00 1003 29.62 832 24.57 -4.9 23.2 97 -5.3 22.5
03:05 1003 29.62 833 24.6 -4.9 23.3 97 -5.3 22.5
03:10 1003 29.62 833 24.6 -5 23 97 -5.5 22.2
03:15 1003 29.62 833 24.6 -5.1 22.8 96 -5.6 21.9
03:20 1003 29.62 833 24.6 -5.3 22.4 96 -5.8 21.5
03:25 1003 29.62 833 24.6 -5.4 22.3 96 -5.9 21.4
03:30 1003 29.62 833 24.6 -5.4 22.3 96 -5.9 21.3
03:35 1004 29.65 833 24.6 -5.5 22.1 96 -6.1 21.1
03:40 1004 29.65 833 24.6 -5.6 21.9 96 -6.2 20.8
03:45 1004 29.65 833 24.6 -5.7 21.7 96 -6.3 20.7
03:50 1004 29.65 833 24.6 -5.8 21.6 96 -6.3 20.6
03:55 1004 29.65 833 24.6 -5.7 21.8 96 -6.2 20.9
04:00 1004 29.65 833 24.6 -5.6 21.9 96 -6.1 21
04:05 1004 29.65 833 24.6 -5.5 22.1 96 -6.1 21.1
04:10 1004 29.65 833 24.6 -5.6 22 96 -6.1 21
04:15 1004 29.65 833 24.6 -5.5 22 95 -6.2 20.9
04:20 1004 29.65 833 24.6 -5.6 21.9 95 -6.3 20.7
04:25 1004 29.65 833 24.6 -5.5 22.2 96 -6 21.2
04:30 1004 29.65 833 24.6 -5 23 96 -5.6 22
04:35 1004 29.65 833 24.6 -4.5 24 94 -5.3 22.5
04:40 1004 29.65 833 24.6 -4.2 24.4 93 -5.2 22.7
04:45 1004 29.65 833 24.6 -4 24.8 91 -5.2 22.7
04:50 1004 29.65 833 24.6 -4.1 24.7 92 -5.1 22.7
04:55 1004 29.65 833 24.6 -3.9 24.9 90 -5.3 22.5
05:00 1004 29.65 833 24.6 -3.9 25 90 -5.3 22.5
05:05 1004 29.65 833 24.6 -3.8 25.2 90 -5.2 22.6
05:10 1004 29.65 833 24.6 -4 24.8 91 -5.3 22.5
05:15 1004 29.65 833 24.6 -4.3 24.3 92 -5.3 22.4
05:20 1004 29.65 833 24.6 -4.2 24.5 92 -5.3 22.5
05:25 1004 29.65 833 24.6 -3.9 24.9 91 -5.2 22.6
05:30 1004 29.65 833 24.6 -3.9 25.1 89 -5.4 22.3
05:35 1004 29.65 833 24.6 -3.7 25.4 88 -5.4 22.3
05:40 1004 29.65 833 24.6 -3.5 25.6 87 -5.3 22.4
05:45 1004 29.65 833 24.6 -3.5 25.8 87 -5.4 22.4
05:50 1004 29.65 833 24.6 -3.7 25.3 88 -5.5 22.1
05:55 1004 29.65 833 24.6 -3.7 25.3 87 -5.6 22
06:00 1004 29.65 833 24.6 -3.5 25.6 87 -5.4 22.3
06:05 1004 29.65 833 24.6 -3.3 26 85 -5.5 22.1
06:10 1004 29.65 833 24.6 -3.1 26.4 84 -5.5 22.1
06:15 1004 29.65 833 24.6 -3 26.6 83 -5.6 21.9
06:20 1004 29.65 833 24.6 -2.9 26.8 81 -5.7 21.8
06:25 1004 29.65 833 24.6 -2.9 26.8 82 -5.6 21.9
06:30 1004 29.65 833 24.6 -2.9 26.8 81 -5.8 21.6
06:35 1004 29.65 834 24.63 -2.9 26.8 81 -5.7 21.7
06:40 1004 29.65 834 24.63 -2.8 26.9 82 -5.5 22.1
06:45 1004 29.65 834 24.63 -2.8 26.9 82 -5.6 22
06:50 1004 29.65 834 24.63 -2.8 26.9 81 -5.7 21.8
06:55 1004 29.65 834 24.63 -2.9 26.8 80 -5.8 21.5
07:00 1004 29.65 834 24.63 -2.9 26.9 80 -5.8 21.5
07:05 1004 29.65 834 24.63 -3 26.7 81 -5.8 21.5
07:10 1004 29.65 834 24.63 -3 26.6 80 -6 21.2
07:15 1004 29.65 834 24.63 -2.9 26.8 80 -5.9 21.4
07:20 1005 29.68 834 24.63 -2.9 26.7 80 -5.9 21.3
07:25 1005 29.68 834 24.63 -2.9 26.7 80 -6 21.3
07:30 1005 29.68 834 24.63 -2.9 26.7 80 -5.9 21.3
07:35 1005 29.68 834 24.63 -3 26.6 81 -5.8 21.5
07:40 1005 29.68 834 24.63 -3 26.7 81 -5.8 21.6
07:45 1005 29.68 834 24.63 -3.2 26.3 85 -5.3 22.4
07:50 1005 29.68 834 24.63 -3.4 25.9 86 -5.4 22.3
07:55 1005 29.68 834 24.63 -3.4 25.9 87 -5.3 22.5
08:00 1005 29.68 834 24.63 -3.4 25.8 86 -5.4 22.3
08:05 1005 29.68 834 24.63 -3.9 24.9 90 -5.3 22.5
08:10 1005 29.68 834 24.63 -4.3 24.3 92 -5.4 22.2
08:15 1005 29.68 834 24.63 -4.3 24.3 93 -5.3 22.5
08:20 1005 29.68 834 24.63 -4 24.8 92 -5.1 22.8
08:25 1005 29.68 834 24.63 -3.8 25.1 92 -5 23.1
08:30 1005 29.68 834 24.63 -3.7 25.3 92 -4.9 23.2
08:35 1005 29.68 834 24.63 -3.6 25.5 91 -4.8 23.3
08:40 1005 29.68 834 24.63 -3.5 25.7 91 -4.8 23.4
08:45 1005 29.68 835 24.66 -3.5 25.8 91 -4.8 23.4
08:50 1005 29.68 835 24.66 -3.5 25.6 91 -4.8 23.4
08:55 1005 29.68 835 24.66 -3.4 25.8 91 -4.7 23.5
09:00 1005 29.68 835 24.66 -3.4 25.9 90 -4.8 23.3
09:05 1005 29.68 835 24.66 -3.5 25.6 91 -4.7 23.5
09:10 1006 29.71 835 24.66 -3.6 25.5 92 -4.7 23.5
09:15 1006 29.71 835 24.66 -3.5 25.7 91 -4.7 23.6
09:20 1006 29.71 835 24.66 -3.3 26 92 -4.5 23.9
09:25 1006 29.71 835 24.66 -3.1 26.3 89 -4.7 23.6
09:30 1006 29.71 835 24.66 -3.1 26.4 88 -4.8 23.4
09:35 1006 29.71 835 24.66 -3.2 26.2 86 -5.2 22.7
09:40 1006 29.71 835 24.66 -3.1 26.4 87 -5 23
09:45 1006 29.71 835 24.66 -3 26.5 87 -5 23.1
09:50 1006 29.71 835 24.66 -3.2 26.2 87 -5.1 22.8
09:55 1006 29.71 835 24.66 -3.2 26.2 87 -5.1 22.8
10:00 1006 29.71 835 24.66 -3.1 26.4 86 -5.1 22.8
10:05 1006 29.71 835 24.66 -3.2 26.3 87 -5 23
10:10 1006 29.71 835 24.66 -3.2 26.2 87 -5 22.9
10:15 1006 29.71 835 24.66 -3.1 26.5 86 -5.1 22.9
10:20 1006 29.71 835 24.66 -2.9 26.7 86 -5 23
10:25 1006 29.71 835 24.66 -2.6 27.3 82 -5.2 22.6
10:30 1006 29.71 835 24.66 -2.3 27.9 82 -5 23.1
10:35 1006 29.71 836 24.69 -2 28.3 79 -5.2 22.6
10:40 1006 29.71 836 24.69 -1.9 28.6 79 -5 22.9
10:45 1006 29.71 836 24.69 -1.5 29.3 76 -5.2 22.7
10:50 1006 29.71 836 24.69 -1.3 29.7 76 -5 22.9
10:55 1006 29.71 836 24.69 -1.2 29.8 75 -5 22.9
11:00 1006 29.71 836 24.69 -1.4 29.4 74 -5.4 22.2
11:05 1006 29.71 836 24.69 -1.6 29.2 75 -5.5 22.1
11:10 1006 29.71 836 24.69 -1.5 29.3 75 -5.4 22.3
11:15 1007 29.74 836 24.69 -1.3 29.6 72 -5.8 21.6
11:20 1007 29.74 836 24.69 -1.5 29.4 74 -5.5 22.2
11:25 1007 29.74 836 24.69 -1.5 29.2 74 -5.7 21.8
11:30 1007 29.74 836 24.69 -1.6 29 74 -5.7 21.8
11:35 1007 29.74 836 24.69 -1.8 28.8 74 -5.8 21.6
11:40 1007 29.74 836 24.69 -1.8 28.7 75 -5.7 21.7
11:45 1007 29.74 836 24.69 -2.1 28.2 78 -5.5 22.1
11:50 1007 29.74 836 24.69 -2.2 28 78 -5.6 21.9
11:55 1007 29.74 836 24.69 -2.1 28.2 78 -5.4 22.3
12:00 1007 29.74 836 24.69 -2.4 27.7 80 -5.4 22.3
12:05 1007 29.74 836 24.69 -2.5 27.5 79 -5.6 21.9
12:10 1007 29.74 836 24.69 -2.5 27.6 79 -5.6 21.8
12:15 1007 29.74 836 24.69 -2.6 27.4 80 -5.6 21.8
12:20 1007 29.74 836 24.69 -2.7 27.1 80 -5.7 21.8
12:25 1007 29.74 836 24.69 -2.8 27 81 -5.6 21.9
12:30 1007 29.74 836 24.69 -2.9 26.7 82 -5.5 22.1
12:35 1007 29.74 836 24.69 -2.7 27.1 81 -5.5 22
12:40 1007 29.74 836 24.69 -2.8 26.9 82 -5.6 22
12:45 1007 29.74 836 24.69 -3.1 26.5 84 -5.5 22.2
12:50 1007 29.74 836 24.69 -3.1 26.5 83 -5.5 22.1
12:55 1007 29.74 836 24.69 -3.1 26.4 84 -5.4 22.3
13:00 1007 29.74 836 24.69 -3.1 26.5 85 -5.2 22.7
13:05 1007 29.74 836 24.69 -3.1 26.5 87 -5 23.1
13:10 1007 29.74 836 24.69 -3 26.6 87 -4.9 23.2
13:15 1007 29.74 836 24.69 -3 26.5 87 -4.9 23.2
13:20 1007 29.74 836 24.69 -3 26.5 88 -4.8 23.3
13:25 1007 29.74 836 24.69 -3 26.7 88 -4.7 23.5
13:30 1007 29.74 836 24.69 -2.9 26.8 89 -4.5 23.9
13:35 1007 29.74 836 24.69 -2.7 27.1 88 -4.5 23.8
13:40 1007 29.74 837 24.72 -2.8 26.9 88 -4.5 23.9
13:45 1007 29.74 837 24.72 -2.8 26.9 87 -4.8 23.4
13:50 1008 29.77 837 24.72 -3 26.7 87 -4.9 23.2
13:55 1008 29.77 837 24.72 -3 26.6 87 -4.9 23.3
14:00 1008 29.77 837 24.72 -3.1 26.5 88 -4.8 23.3
14:05 1008 29.77 837 24.72 -3.1 26.5 88 -4.8 23.4
14:10 1008 29.77 837 24.72 -3.1 26.5 88 -4.8 23.3
14:15 1008 29.77 837 24.72 -3.2 26.3 88 -4.9 23.2
14:20 1008 29.77 837 24.72 -3.1 26.4 87 -5 23.1
14:25 1008 29.77 837 24.72 -3.2 26.3 86 -5.1 22.8
14:30 1008 29.77 837 24.72 -3.2 26.2 86 -5.2 22.6
14:35 1008 29.77 837 24.72 -3.4 25.9 85 -5.5 22
14:40 1008 29.77 837 24.72 -3.5 25.8 85 -5.7 21.8
14:45 1008 29.77 837 24.72 -3.4 25.9 84 -5.8 21.6
14:50 1008 29.77 837 24.72 -3.5 25.8 84 -5.7 21.7
14:55 1008 29.77 838 24.75 -3.5 25.7 84 -5.8 21.6
15:00 1008 29.77 838 24.75 -3.5 25.7 84 -5.8 21.5
15:05 1008 29.77 838 24.75 -3.6 25.5 84 -5.9 21.4
15:10 1009 29.8 838 24.75 -3.7 25.4 84 -5.9 21.3
15:15 1009 29.8 838 24.75 -3.7 25.3 84 -6 21.1
15:20 1009 29.8 838 24.75 -3.8 25.2 84 -6.1 20.9
15:25 1009 29.8 838 24.75 -3.9 25 84 -6.3 20.7
15:30 1009 29.8 838 24.75 -4 24.9 83 -6.4 20.5
15:35 1009 29.8 838 24.75 -4.1 24.7 84 -6.4 20.5
15:40 1009 29.8 838 24.75 -4.1 24.6 84 -6.5 20.3
15:45 1009 29.8 838 24.75 -4.2 24.4 84 -6.5 20.3
15:50 1009 29.8 838 24.75 -4.2 24.5 83 -6.6 20.1
15:55 1009 29.8 839 24.78 -4.1 24.5 83 -6.6 20.1
16:00 1009 29.8 839 24.78 -4.1 24.6 82 -6.7 20
16:05 1010 29.83 839 24.78 -4.2 24.5 81 -6.9 19.5
16:10 1010 29.83 839 24.78 -4.2 24.5 81 -6.9 19.5
16:15 1010 29.83 839 24.78 -4.3 24.3 81 -7 19.4
16:20 1010 29.83 839 24.78 -4.4 24.1 82 -7 19.3
16:25 1010 29.83 839 24.78 -4.5 24 83 -7 19.4
16:30 1010 29.83 839 24.78 -4.5 23.9 83 -7 19.5
16:35 1010 29.83 839 24.78 -4.5 23.9 83 -7 19.3
16:40 1010 29.83 839 24.78 -4.6 23.8 83 -7 19.3
16:45 1010 29.83 840 24.81 -4.6 23.7 84 -7 19.4
16:50 1010 29.83 840 24.81 -4.7 23.5 84 -7.1 19.3
16:55 1010 29.83 840 24.81 -4.8 23.4 84 -7.1 19.2
17:00 1011 29.85 840 24.81 -4.8 23.3 84 -7.1 19.1
17:05 1011 29.85 840 24.81 -4.9 23.3 84 -7.1 19.2
17:10 1011 29.85 840 24.81 -4.9 23.2 85 -7.1 19.2
17:15 1011 29.85 840 24.81 -4.9 23.1 85 -7.1 19.3
17:20 1011 29.85 840 24.81 -5.1 22.8 85 -7.2 19
17:25 1011 29.85 840 24.81 -5.2 22.7 85 -7.4 18.7
17:30 1011 29.85 840 24.81 -5.2 22.6 85 -7.4 18.8
17:35 1011 29.85 840 24.81 -5.2 22.6 85 -7.3 18.8
17:40 1011 29.85 840 24.81 -5.3 22.5 86 -7.3 18.8
17:45 1011 29.85 840 24.81 -5.4 22.3 86 -7.4 18.7
17:50 1011 29.85 841 24.83 -5.4 22.3 86 -7.4 18.6
17:55 1012 29.88 841 24.83 -5.4 22.4 85 -7.5 18.5
18:00 1012 29.88 841 24.83 -5.3 22.5 85 -7.5 18.5
18:05 1012 29.88 841 24.83 -5.2 22.6 84 -7.5 18.5
18:10 1012 29.88 841 24.83 -5.2 22.7 84 -7.5 18.5
18:15 1012 29.88 841 24.83 -5.2 22.7 83 -7.6 18.4
18:20 1012 29.88 841 24.83 -5.2 22.6 83 -7.7 18.2
18:25 1012 29.88 841 24.83 -5.3 22.5 83 -7.7 18.1
18:30 1012 29.88 841 24.83 -5.3 22.4 83 -7.7 18.1
18:35 1012 29.88 841 24.83 -5.3 22.5 83 -7.8 18
18:40 1012 29.88 841 24.83 -5.3 22.4 83 -7.8 18
18:45 1012 29.88 842 24.86 -5.4 22.2 83 -7.8 17.9
18:50 1012 29.88 842 24.86 -5.5 22.1 83 -7.9 17.8
18:55 1012 29.88 842 24.86 -5.5 22 84 -7.9 17.8
19:00 1013 29.91 842 24.86 -5.6 22 84 -7.9 17.8
19:05 1013 29.91 842 24.86 -5.8 21.6 85 -7.9 17.8
19:10 1013 29.91 842 24.86 -5.9 21.3 86 -8 17.6
19:15 1013 29.91 842 24.86 -6.1 20.9 86 -8.1 17.4
19:20 1013 29.91 842 24.86 -6 21.1 85 -8.2 17.3
19:25 1013 29.91 842 24.86 -6 21.2 85 -8.1 17.4
19:30 1013 29.91 842 24.86 -6 21.2 85 -8.1 17.4
19:35 1013 29.91 842 24.86 -5.9 21.4 84 -8.2 17.3
19:40 1013 29.91 842 24.86 -5.8 21.5 83 -8.2 17.2
19:45 1013 29.91 842 24.86 -5.8 21.5 83 -8.3 17.1
19:50 1013 29.91 843 24.89 -5.8 21.6 83 -8.3 17.1
19:55 1013 29.91 843 24.89 -5.6 21.9 82 -8.3 17.1
20:00 1013 29.91 843 24.89 -5.6 21.9 82 -8.2 17.2
20:05 1013 29.91 843 24.89 -5.5 22.1 81 -8.3 17.1
20:10 1014 29.94 843 24.89 -5.4 22.2 80 -8.3 17
20:15 1014 29.94 843 24.89 -5.4 22.4 80 -8.3 17
20:20 1014 29.94 843 24.89 -5.3 22.4 80 -8.2 17.2
20:25 1014 29.94 843 24.89 -5.3 22.4 79 -8.4 16.9
20:30 1014 29.94 843 24.89 -5.4 22.3 80 -8.4 17
20:35 1014 29.94 843 24.89 -5.4 22.4 80 -8.2 17.2
20:40 1014 29.94 843 24.89 -5.4 22.3 81 -8.1 17.4
20:45 1014 29.94 843 24.89 -5.7 21.8 82 -8.2 17.2
20:50 1014 29.94 843 24.89 -5.7 21.8 82 -8.3 17.1
20:55 1014 29.94 844 24.92 -5.8 21.5 83 -8.2 17.2
21:00 1014 29.94 844 24.92 -6 21.2 84 -8.3 17.1
21:05 1014 29.94 844 24.92 -6 21.2 84 -8.3 17.1
21:10 1015 29.97 844 24.92 -6.1 21 85 -8.2 17.3
21:15 1015 29.97 844 24.92 -6.3 20.7 86 -8.2 17.2
21:20 1015 29.97 844 24.92 -6.2 20.8 86 -8.1 17.3
21:25 1015 29.97 844 24.92 -6.2 20.8 86 -8.2 17.2
21:30 1015 29.97 844 24.92 -6.2 20.8 87 -8.1 17.4
21:35 1015 29.97 844 24.92 -6.3 20.7 87 -8.1 17.4
21:40 1015 29.97 844 24.92 -6.3 20.7 88 -8 17.5
21:45 1015 29.97 844 24.92 -6.2 20.8 87 -8.1 17.4
21:50 1015 29.97 844 24.92 -6.2 20.8 87 -8.1 17.4
21:55 1015 29.97 844 24.92 -6.3 20.7 87 -8.1 17.5
22:00 1015 29.97 844 24.92 -6.3 20.6 88 -8.1 17.5
22:05 1015 29.97 844 24.92 -6.3 20.6 87 -8.1 17.4
22:10 1015 29.97 844 24.92 -6.3 20.6 88 -8 17.6
22:15 1015 29.97 845 24.95 -6.3 20.7 88 -7.9 17.7
22:20 1015 29.97 845 24.95 -6.3 20.6 88 -8 17.7
22:25 1015 29.97 845 24.95 -6.3 20.6 89 -7.9 17.8
22:30 1015 29.97 845 24.95 -6.3 20.7 88 -7.9 17.8
22:35 1016 30 845 24.95 -6.3 20.6 89 -7.9 17.8
22:40 1016 30 845 24.95 -6.3 20.6 89 -7.8 17.9
22:45 1016 30 845 24.95 -6.3 20.6 89 -7.9 17.9
22:50 1016 30 845 24.95 -6.4 20.5 89 -8 17.7
22:55 1016 30 845 24.95 -6.5 20.3 89 -8 17.7
23:00 1016 30 845 24.95 -6.5 20.4 89 -7.9 17.7
23:05 1016 30 845 24.95 -6.5 20.4 89 -8 17.6
23:10 1016 30 845 24.95 -6.5 20.4 89 -8 17.7
23:15 1016 30 845 24.95 -6.4 20.4 89 -7.9 17.7
23:20 1016 30 845 24.95 -6.4 20.4 89 -7.9 17.7
23:25 1016 30 845 24.95 -6.4 20.4 89 -8 17.7
23:30 1016 30 845 24.95 -6.5 20.2 90 -8 17.6
23:35 1016 30 845 24.95 -6.6 20.2 89 -8.1 17.5
23:40 1016 30 845 24.95 -6.6 20.2 88 -8.2 17.3
23:45 1016 30 845 24.95 -6.6 20.1 88 -8.2 17.2
23:50 1016 30 846 24.98 -6.7 20 88 -8.3 17.1
23:55 1016 30 846 24.98 -6.7 19.9 89 -8.3 17.1
24:00 1016 30 846 24.98 -6.8 19.8 89 -8.3 17